首页
METAR-TAF:

METAR-TAF

机场 :

North Bay, 安大略省, 加拿大

纬度: 46-21N, 经度: 079-26W, 海拔: 358米

当前天气观测

该预报发布于1小时和7分钟前的20:00 UTC
风速11节,风向,有时为22节阵风,在西转西北之间变化
温度 17°C
湿度 52%
气压 1014 hPa
能見度: 48.3公里
多云层高于4700英尺
多云层高于9000英尺

METAR: CYYB 062000Z 36011G22KT 290V010 30SM BKN047 BKN090 17/07 A2995 RMK SC6AC1 SLP148 DENSITY ALT 1800FT

时间: 17:07 (21:07 UTC)

预报

该预报发布于1小时和29分钟前的19:38 UTC
预报有效从06日的 20点(UTC)到 07日的 08点(UTC)
风速12节,风向北转西北
能見度: 10公里
散云层高于2000英尺
短暂存在
从 06日的 20点(UTC)到 06日的 22点(UTC)
多云层高于2000英尺
从 06日的 2200点(UTC)
风速12节,风向
能見度: 10公里
多云层高于5000英尺
短暂存在
从 06日的 22点(UTC)到 07日的 03点(UTC)
散云层高于5000英尺
从 07日的 0300点(UTC)
风速10节,风向
能見度: 10公里
少量云层高于5000英尺

TAF: CYYB 061938Z 0620/0708 33012KT P6SM SCT020 TEMPO 0620/0622 BKN020 FM062200 35012KT P6SM BKN050 TEMPO 0622/0703 SCT050 FM070300 36010KT P6SM FEW050 RMK NXT FCST BY 070200Z

超过4000个机场的气象观测和天气预报(METAR&TAF报告)。

可查询的气象台以黄色和红色小点在地图上表示。

将鼠标移到小点上方,可查看气象台名称。

然后点击查看天气观测和预报。

如需切换地图:点击带黑十字的绿色按钮放大地图;点击带横线的绿色按钮缩小地图;或者点击绿色箭头查看邻近地区的地图。


METAR-TAF: